Wetterstation Vordersexau
Wetterdaten: Januar 2018
Datum Temp. A. Feuchte A. Luftdruck Regen Wind Richtung Taupunkt Windchill Windben
01.01.2018 8,1 C 74 % 1006,4 hPa 1,6 l/m 21,9 km/h W-SW 3,7 C 1,0 C 12,2 km/h
02.01.2018 6,5 C 78 % 1012,7 hPa 1,0 l/m 15,8 km/h W-SW 2,9 C 0,9 C 8,8 km/h
03.01.2018 9,0 C 77 % 1003,5 hPa 5,7 l/m 23,1 km/h W 5,2 C 2,0 C 12,8 km/h
04.01.2018 9,6 C 83 % 1001,3 hPa 4,7 l/m 21,1 km/h SW 6,9 C 3,2 C 11,7 km/h
05.01.2018 10,2 C 79 % 1001,3 hPa 6,7 l/m 7,2 km/h W-SW 6,7 C 8,1 C 4,0 km/h
06.01.2018 8,6 C 78 % 1004,4 hPa 0,5 l/m 0,3 km/h SO 4,9 C 8,6 C 0,2 km/h
07.01.2018 5,2 C 84 % 1011,9 hPa 0,0 l/m 0,0 km/h N-NO 2,7 C 5,2 C 0,0 km/h
08.01.2018 3,3 C 79 % 1014,4 hPa 0,5 l/m 0,3 km/h O-SO 0,0 C 3,2 C 0,2 km/h
09.01.2018 5,2 C 79 % 1010,0 hPa 0,0 l/m 0,0 km/h W-NW 1,9 C 5,2 C 0,0 km/h
10.01.2018 6,3 C 79 % 1009,5 hPa 0,0 l/m 0,0 km/h O-SO 2,8 C 6,3 C 0,0 km/h
11.01.2018 4,5 C 84 % 1012,7 hPa 1,0 l/m 0,0 km/h W-NW 2,1 C 4,5 C 0,0 km/h
12.01.2018 1,8 C 82 % 1020,7 hPa 0,0 l/m 0,0 km/h NW -0,9 C 1,8 C 0,0 km/h
13.01.2018 1,8 C 78 % 1019,6 hPa 0,0 l/m 2,1 km/h SO -1,8 C 1,2 C 1,1 km/h
14.01.2018 0,6 C 79 % 1017,9 hPa 0,0 l/m 0,0 km/h NO -2,7 C 0,6 C 0,0 km/h
15.01.2018 2,8 C 80 % 1011,7 hPa 0,0 l/m 10,2 km/h W-SW -0,5 C -0,6 C 5,7 km/h
16.01.2018 7,3 C 83 % 999,5 hPa 4,7 l/m 19,1 km/h W 4,6 C 1,1 C 10,6 km/h
17.01.2018 3,8 C 81 % 1006,1 hPa 3,6 l/m 13,1 km/h W-SW 0,7 C -1,4 C 7,3 km/h
18.01.2018 6,3 C 82 % 1006,8 hPa 4,1 l/m 25,4 km/h W 3,5 C -2,0 C 14,1 km/h
19.01.2018 5,3 C 81 % 1009,6 hPa 0,5 l/m 9,3 km/h W 2,3 C 2,1 C 5,2 km/h
20.01.2018 5,2 C 82 % 1004,5 hPa 2,1 l/m 16,7 km/h W 2,3 C -1,1 C 9,3 km/h
21.01.2018 4,4 C 81 % 1011,7 hPa 1,0 l/m 0,8 km/h NO 1,4 C 4,1 C 0,4 km/h
22.01.2018 8,5 C 81 % 1009,9 hPa 6,7 l/m 10,1 km/h NO 5,4 C 5,5 C 5,6 km/h
23.01.2018 6,4 C 80 % 1023,5 hPa 0,5 l/m 1,9 km/h S 3,1 C 5,9 C 1,1 km/h
24.01.2018 10,3 C 76 % 1020,2 hPa 0,0 l/m 6,5 km/h S-SW 6,1 C 8,4 C 3,6 km/h
25.01.2018 11,1 C 67 % 1013,7 hPa 0,0 l/m 10,4 km/h SO 5,0 C 8,1 C 5,8 km/h
26.01.2018 6,8 C 82 % 1015,6 hPa 5,2 l/m 0,1 km/h W-NW 4,0 C 6,8 C 0,0 km/h
27.01.2018 6,2 C 81 % 1027,9 hPa 1,0 l/m 0,0 km/h W-NW 3,2 C 6,2 C 0,0 km/h
28.01.2018 7,7 C 80 % 1033,8 hPa 0,0 l/m 9,6 km/h W 4,4 C 4,7 C 5,4 km/h
29.01.2018 7,5 C 83 % 1030,5 hPa 0,0 l/m 11,2 km/h W 4,7 C 4,0 C 6,2 km/h
30.01.2018 8,4 C 83 % 1026,7 hPa 0,0 l/m 0,3 km/h W-SW 5,6 C 8,4 C 0,2 km/h
31.01.2018 7,7 C 80 % 1012,9 hPa 1,6 l/m 18,2 km/h W-SW 4,4 C 1,4 C 10,1 km/h
Min-Datum 14.01.18 13.01.18 03.01.18 19 Tage 01.01.18 - 14.01.18 18.01.18 01.01.18
Min-Zeit 07:53 15:53 08:53 - 14:53 - 07:53 03:53 14:53
Minimum -4,2 C 50 % 995,4 hPa - 0,0 km/h - -6,2 C -10,8 C 0,0 km/h
Max-Datum 24.01.18 05.01.18 28.01.18 22.01.18 18.01.18 - 24.01.18 24.01.18 18.01.18
Max-Zeit 10:53 02:53 11:53 02:53 13:53 - 10:53 10:53 13:53
Maximum 17,5 C 86 % 1034,8 hPa 6,7 l/m 70,0 km/h
W
- 11,7 C 17,5 C 38,9 km/h
W
Durchschnitt 6,3 C 80 % 1013,3 hPa #52,8 l/m 8,2 km/h W 3,1 C 3,7 C 4,6 km/h

Durchschnitt Minimum Temp.3,2 C
Durchschnitt Maximum Temp.10,4 C
www.sexauwetter.de